Time;durP1;ratioP1;P1;durP2;ratioP2;P2;SDS_P1;SDS_P2;PMS_P1;PMS_P2;Temp;Humidity;BMP_temperature;BMP_pressure;BME280_temperature;BME280_humidity;BME280_pressure;Samples;Min_cycle;Max_cycle;Signal;HPM_P1;HPM_P2
2023/07/31 00:01:21;;;;;;;2.67;2.07;;;18.80;99.10;;;;;;4964819;28;20465;-66
2023/07/31 00:03:48;;;;;;;3.70;1.73;;;18.90;98.20;;;;;;4952946;28;20498;-66
2023/07/31 00:06:16;;;;;;;2.57;2.00;;;18.90;98.70;;;;;;4960229;28;20452;-66
2023/07/31 00:08:43;;;;;;;3.73;2.37;;;18.90;98.60;;;;;;4972437;28;20467;-67
2023/07/31 00:11:10;;;;;;;3.30;2.03;;;18.90;99.10;;;;;;4981752;28;21051;-67
2023/07/31 00:13:37;;;;;;;3.03;2.30;;;18.90;98.10;;;;;;4967152;28;20467;-66
2023/07/31 00:16:04;;;;;;;2.97;2.07;;;18.90;97.90;;;;;;4955071;28;20460;-66
2023/07/31 00:18:31;;;;;;;2.40;2.17;;;19.00;98.20;;;;;;4962350;28;20451;-66
2023/07/31 00:20:57;;;;;;;3.53;2.90;;;19.00;98.70;;;;;;4965490;28;20481;-66
2023/07/31 00:23:26;;;;;;;2.87;2.57;;;18.90;98.00;;;;;;4955792;28;20491;-67
2023/07/31 00:25:52;;;;;;;2.77;2.03;;;18.90;98.00;;;;;;4967278;28;20452;-67
2023/07/31 00:28:19;;;;;;;3.20;2.67;;;18.90;98.20;;;;;;4959980;28;20967;-67
2023/07/31 00:30:46;;;;;;;2.60;2.40;;;18.90;98.20;;;;;;4960727;28;20901;-66
2023/07/31 00:33:13;;;;;;;4.23;2.30;;;18.80;98.30;;;;;;4967182;28;21066;-67
2023/07/31 00:35:40;;;;;;;4.47;2.07;;;18.80;98.70;;;;;;4955467;28;20464;-67
2023/07/31 00:38:06;;;;;;;5.17;2.30;;;18.90;99.10;;;;;;4964563;28;20561;-66
2023/07/31 00:40:37;;;;;;;5.93;2.47;;;18.90;99.00;;;;;;4960154;28;20739;-66
2023/07/31 00:43:05;;;;;;;4.10;2.37;;;18.90;98.60;;;;;;4957343;28;20491;-66
2023/07/31 00:45:32;;;;;;;3.43;1.90;;;18.90;98.50;;;;;;4967979;28;20545;-66
2023/07/31 00:47:59;;;;;;;4.20;2.13;;;18.80;99.10;;;;;;4956451;28;20821;-66
2023/07/31 00:50:27;;;;;;;2.10;1.90;;;18.90;98.60;;;;;;4962720;28;20776;-66
2023/07/31 00:52:54;;;;;;;3.43;1.90;;;18.80;99.30;;;;;;4962943;28;20481;-66
2023/07/31 00:55:22;;;;;;;1.97;1.73;;;18.80;99.10;;;;;;4980973;28;20544;-66
2023/07/31 00:57:52;;;;;;;5.10;2.50;;;18.80;99.20;;;;;;4982068;28;20455;-66
2023/07/31 01:00:19;;;;;;;3.37;2.73;;;18.80;99.20;;;;;;4991568;28;20549;-66
2023/07/31 01:02:46;;;;;;;3.30;2.10;;;18.80;98.70;;;;;;4991348;28;20818;-66
2023/07/31 01:05:13;;;;;;;3.83;2.30;;;18.70;98.90;;;;;;4991289;28;21061;-66
2023/07/31 01:07:47;;;;;;;3.03;1.63;;;18.70;98.80;;;;;;4979847;28;20471;-66
2023/07/31 01:10:20;;;;;;;4.03;2.40;;;18.70;99.20;;;;;;4982950;28;20954;-66
2023/07/31 01:12:48;;;;;;;2.17;1.90;;;18.60;99.40;;;;;;4990966;28;20548;-66
2023/07/31 01:15:17;;;;;;;2.07;1.90;;;18.60;99.40;;;;;;4985426;28;20479;-66
2023/07/31 01:17:44;;;;;;;4.70;2.57;;;18.60;99.30;;;;;;4980070;28;20541;-66
2023/07/31 01:20:14;;;;;;;2.33;2.20;;;18.60;99.20;;;;;;4991029;28;20457;-66
2023/07/31 01:23:22;;;;;;;2.53;2.33;;;18.60;99.40;;;;;;4990940;28;20548;-66
2023/07/31 01:26:00;;;;;;;3.40;1.80;;;18.50;99.40;;;;;;4987483;28;20475;-66
2023/07/31 01:28:36;;;;;;;4.30;1.70;;;18.50;99.60;;;;;;4990677;28;20461;-66
2023/07/31 01:31:05;;;;;;;2.07;1.87;;;18.50;99.90;;;;;;4982155;28;20467;-66
2023/07/31 01:33:32;;;;;;;4.23;2.00;;;18.50;99.50;;;;;;4987728;28;20479;-66
2023/07/31 01:35:59;;;;;;;3.53;2.80;;;18.50;99.70;;;;;;4989996;28;20455;-66
2023/07/31 01:38:26;;;;;;;2.80;2.43;;;18.40;99.50;;;;;;4990835;28;20544;-66
2023/07/31 01:40:54;;;;;;;5.20;2.30;;;18.40;99.90;;;;;;4990755;28;20458;-66
2023/07/31 01:43:21;;;;;;;2.27;1.90;;;18.50;99.80;;;;;;4990471;28;20582;-66
2023/07/31 01:45:48;;;;;;;5.73;1.73;;;18.40;99.80;;;;;;4990283;28;20465;-66
2023/07/31 01:48:15;;;;;;;1.67;1.57;;;18.40;99.80;;;;;;4990477;28;20552;-66
2023/07/31 01:50:42;;;;;;;5.03;2.30;;;18.40;99.90;;;;;;4990522;28;20986;-66
2023/07/31 01:53:09;;;;;;;2.30;1.50;;;18.40;99.80;;;;;;4990666;28;20473;-66
2023/07/31 01:55:35;;;;;;;5.10;3.17;;;18.40;99.90;;;;;;4987100;28;20557;-66
2023/07/31 01:58:04;;;;;;;2.33;1.87;;;18.40;99.90;;;;;;4981554;28;20568;-66
2023/07/31 02:00:30;;;;;;;6.70;2.30;;;18.40;99.90;;;;;;4990230;28;20488;-66
2023/07/31 02:02:57;;;;;;;3.80;2.00;;;18.40;99.90;;;;;;4990482;28;20572;-66
2023/07/31 02:05:24;;;;;;;2.93;2.30;;;18.30;99.80;;;;;;4990242;28;20560;-66
2023/07/31 02:07:51;;;;;;;2.23;2.03;;;18.30;99.90;;;;;;4989450;28;20472;-66
2023/07/31 02:10:18;;;;;;;7.20;2.40;;;18.30;99.90;;;;;;4990026;28;20468;-66
2023/07/31 02:12:44;;;;;;;3.53;2.73;;;18.30;99.90;;;;;;4989863;28;20469;-67
2023/07/31 02:15:13;;;;;;;4.03;2.23;;;18.30;99.90;;;;;;4990136;28;20897;-66
2023/07/31 02:17:39;;;;;;;4.83;2.40;;;18.30;99.90;;;;;;4988020;28;20471;-66
2023/07/31 02:20:07;;;;;;;6.57;2.43;;;18.30;99.90;;;;;;4989964;28;20464;-66
2023/07/31 02:22:34;;;;;;;4.33;1.97;;;18.30;99.90;;;;;;4989830;28;20989;-67
2023/07/31 02:25:01;;;;;;;4.97;2.20;;;18.30;99.90;;;;;;4989819;28;20500;-66
2023/07/31 02:27:28;;;;;;;3.40;2.17;;;18.20;99.90;;;;;;4989475;28;21096;-67
2023/07/31 02:29:55;;;;;;;2.70;2.30;;;18.30;99.90;;;;;;4989862;28;20460;-67
2023/07/31 02:32:23;;;;;;;2.60;2.30;;;18.20;99.90;;;;;;4989727;28;20465;-67
2023/07/31 02:34:50;;;;;;;2.40;2.20;;;18.20;99.90;;;;;;4989558;28;20480;-67
2023/07/31 02:37:17;;;;;;;3.47;2.20;;;18.20;99.90;;;;;;4988924;28;20457;-67
2023/07/31 02:39:44;;;;;;;1.63;1.53;;;18.20;99.90;;;;;;4988527;28;20556;-67
2023/07/31 02:42:11;;;;;;;4.33;2.47;;;18.20;99.90;;;;;;4989700;28;20885;-67
2023/07/31 02:44:38;;;;;;;3.00;2.70;;;18.10;99.90;;;;;;4989446;28;20501;-66
2023/07/31 02:47:05;;;;;;;2.50;2.30;;;18.10;99.90;;;;;;4988706;28;20458;-67
2023/07/31 02:49:33;;;;;;;3.60;2.70;;;18.10;99.90;;;;;;4989490;28;21148;-67
2023/07/31 02:52:00;;;;;;;4.90;2.40;;;18.10;99.90;;;;;;4984260;28;20905;-66
2023/07/31 02:54:27;;;;;;;2.50;2.30;;;18.10;99.90;;;;;;4981361;28;20469;-67
2023/07/31 02:56:53;;;;;;;3.53;2.80;;;18.10;99.90;;;;;;4988947;28;20460;-66
2023/07/31 02:59:21;;;;;;;4.57;2.20;;;18.10;99.90;;;;;;4989359;28;20550;-67
2023/07/31 03:01:48;;;;;;;2.83;2.53;;;18.10;99.90;;;;;;4987576;28;20916;-66
2023/07/31 03:04:15;;;;;;;2.80;2.13;;;18.10;99.90;;;;;;4976000;28;20497;-66
2023/07/31 03:06:43;;;;;;;5.60;3.37;;;18.10;99.90;;;;;;4971595;28;20459;-66
2023/07/31 03:09:10;;;;;;;3.03;2.10;;;18.00;99.90;;;;;;4977767;28;20554;-67
2023/07/31 03:11:36;;;;;;;2.77;2.50;;;18.00;99.90;;;;;;4986990;28;20458;-67
2023/07/31 03:14:03;;;;;;;2.87;2.30;;;18.00;99.90;;;;;;4987152;28;20478;-67
2023/07/31 03:16:30;;;;;;;2.67;2.47;;;18.00;99.90;;;;;;4976926;28;20458;-67
2023/07/31 03:18:57;;;;;;;5.83;2.40;;;18.00;99.90;;;;;;4988057;28;20457;-66
2023/07/31 03:21:24;;;;;;;3.90;2.40;;;17.90;99.90;;;;;;4989260;28;20461;-67
2023/07/31 03:23:52;;;;;;;5.00;2.07;;;17.90;99.90;;;;;;4989165;28;20497;-66
2023/07/31 03:26:19;;;;;;;4.73;2.90;;;17.80;99.90;;;;;;4978441;28;21098;-67
2023/07/31 03:28:46;;;;;;;3.47;2.50;;;17.90;99.90;;;;;;4987912;28;20456;-66
2023/07/31 03:31:13;;;;;;;2.73;2.53;;;17.90;99.90;;;;;;4988821;28;20562;-66
2023/07/31 03:33:39;;;;;;;4.63;2.50;;;17.90;99.90;;;;;;4988759;28;21029;-66
2023/07/31 03:36:07;;;;;;;2.40;2.20;;;17.90;99.90;;;;;;4988224;28;20467;-66
2023/07/31 03:38:34;;;;;;;4.20;2.63;;;18.00;99.90;;;;;;4988907;28;20458;-66
2023/07/31 03:41:02;;;;;;;3.10;2.40;;;18.00;99.90;;;;;;4988887;28;20565;-67
2023/07/31 03:43:29;;;;;;;4.57;2.50;;;17.90;99.90;;;;;;4988631;28;20504;-66
2023/07/31 03:45:56;;;;;;;3.10;2.80;;;18.00;99.90;;;;;;4988165;28;20840;-67
2023/07/31 03:48:23;;;;;;;3.40;2.37;;;17.90;99.90;;;;;;4988648;28;20536;-66
2023/07/31 03:50:50;;;;;;;2.17;1.97;;;18.00;99.90;;;;;;4982981;28;20803;-66
2023/07/31 03:53:17;;;;;;;5.30;3.23;;;18.00;99.90;;;;;;4984568;28;20462;-66
2023/07/31 03:55:43;;;;;;;6.03;3.50;;;18.00;99.90;;;;;;4992684;28;21016;-66
2023/07/31 03:58:12;;;;;;;3.30;2.87;;;18.00;99.90;;;;;;4992034;28;20954;-66
2023/07/31 04:00:40;;;;;;;3.60;2.83;;;18.00;99.90;;;;;;4992114;28;20454;-66
2023/07/31 04:03:07;;;;;;;3.63;2.20;;;18.00;99.90;;;;;;4992310;28;20553;-66
2023/07/31 04:05:38;;;;;;;4.03;2.57;;;18.00;99.90;;;;;;4992440;28;20497;-66
2023/07/31 04:08:05;;;;;;;2.30;1.93;;;18.00;99.90;;;;;;4991347;28;21064;-66
2023/07/31 04:10:33;;;;;;;3.50;2.40;;;17.90;99.90;;;;;;4992426;28;20817;-66
2023/07/31 04:13:00;;;;;;;3.67;2.67;;;18.00;99.90;;;;;;4992243;28;20477;-66
2023/07/31 04:15:28;;;;;;;7.40;2.80;;;18.00;99.90;;;;;;4992382;28;20577;-66
2023/07/31 04:17:55;;;;;;;2.77;2.57;;;18.00;99.90;;;;;;4990415;28;20483;-66
2023/07/31 04:20:22;;;;;;;3.23;3.00;;;17.90;99.90;;;;;;4991902;28;21052;-66
2023/07/31 04:22:49;;;;;;;3.57;2.50;;;18.00;99.90;;;;;;4992057;28;20564;-66
2023/07/31 04:25:16;;;;;;;3.57;2.87;;;18.00;99.90;;;;;;4991408;28;20564;-66
2023/07/31 04:27:42;;;;;;;4.20;3.13;;;18.00;99.90;;;;;;4970368;28;20461;-67
2023/07/31 04:30:10;;;;;;;6.80;2.70;;;18.10;99.90;;;;;;4972417;28;21229;-67
2023/07/31 04:32:38;;;;;;;7.60;2.80;;;18.00;99.90;;;;;;4972123;28;20549;-66
2023/07/31 04:35:05;;;;;;;2.70;2.50;;;18.00;99.90;;;;;;4972361;28;20543;-67
2023/07/31 04:37:32;;;;;;;3.37;2.70;;;18.00;99.90;;;;;;4971321;28;20458;-67
2023/07/31 04:39:59;;;;;;;3.13;2.80;;;18.00;99.90;;;;;;4970155;28;20572;-67
2023/07/31 04:42:26;;;;;;;2.57;2.37;;;18.00;99.90;;;;;;4971719;28;20461;-67
2023/07/31 04:44:53;;;;;;;2.90;2.40;;;18.00;99.90;;;;;;4971560;28;20491;-66
2023/07/31 04:47:20;;;;;;;2.37;2.17;;;18.10;99.90;;;;;;4973961;28;20450;-67
2023/07/31 04:49:48;;;;;;;3.70;3.10;;;18.00;99.90;;;;;;4967305;28;20491;-66
2023/07/31 04:52:15;;;;;;;3.60;2.90;;;18.10;99.90;;;;;;4952420;28;20833;-67
2023/07/31 04:54:42;;;;;;;4.00;2.40;;;18.10;99.90;;;;;;4952380;28;20514;-66
2023/07/31 04:57:09;;;;;;;3.63;3.20;;;18.10;99.90;;;;;;4951537;28;20459;-67
2023/07/31 04:59:36;;;;;;;7.30;2.50;;;18.10;99.90;;;;;;4952489;28;20540;-66
2023/07/31 05:02:03;;;;;;;4.40;3.33;;;18.20;99.90;;;;;;4951582;28;20965;-67
2023/07/31 05:04:30;;;;;;;3.43;2.37;;;18.30;99.90;;;;;;4952008;28;20499;-67
2023/07/31 05:06:58;;;;;;;3.60;2.73;;;18.30;99.90;;;;;;4951796;28;20831;-66
2023/07/31 05:09:25;;;;;;;6.60;2.80;;;18.40;99.90;;;;;;4952431;28;20459;-66
2023/07/31 05:11:52;;;;;;;5.27;2.57;;;18.40;99.90;;;;;;4952312;28;20952;-68
2023/07/31 05:14:20;;;;;;;4.27;2.77;;;18.40;99.90;;;;;;4951828;28;21026;-67
2023/07/31 05:16:47;;;;;;;2.80;2.50;;;18.40;99.90;;;;;;4951629;28;21411;-66
2023/07/31 05:19:14;;;;;;;2.53;2.10;;;18.40;99.90;;;;;;4952514;28;20460;-67
2023/07/31 05:21:41;;;;;;;5.47;3.00;;;18.40;99.90;;;;;;4952611;28;20450;-66
2023/07/31 05:24:09;;;;;;;2.73;2.53;;;18.50;99.90;;;;;;4952124;28;20477;-67
2023/07/31 05:26:36;;;;;;;4.57;2.47;;;18.40;99.90;;;;;;4951290;28;20467;-66
2023/07/31 05:29:02;;;;;;;5.17;3.10;;;18.40;99.90;;;;;;4951921;28;20570;-66
2023/07/31 05:31:29;;;;;;;4.57;2.90;;;18.40;99.90;;;;;;4951891;28;20456;-66
2023/07/31 05:33:56;;;;;;;4.07;2.70;;;18.40;99.90;;;;;;4951645;28;20859;-66
2023/07/31 05:36:23;;;;;;;2.87;2.57;;;18.40;99.90;;;;;;4951008;28;20837;-66
2023/07/31 05:38:50;;;;;;;3.37;3.07;;;18.40;99.90;;;;;;4951719;28;20456;-66
2023/07/31 05:41:18;;;;;;;2.53;2.27;;;18.50;99.90;;;;;;4951708;28;20973;-66
2023/07/31 05:43:45;;;;;;;3.93;2.73;;;18.50;99.90;;;;;;4952139;28;20477;-66
2023/07/31 05:46:12;;;;;;;2.57;2.37;;;18.50;99.90;;;;;;4950876;28;21098;-66
2023/07/31 05:48:39;;;;;;;5.40;2.60;;;18.50;99.90;;;;;;4951600;28;21025;-66
2023/07/31 05:51:07;;;;;;;2.80;2.60;;;18.50;99.90;;;;;;4951452;28;21017;-66
2023/07/31 05:53:33;;;;;;;2.77;2.57;;;18.60;99.90;;;;;;4951156;28;20511;-66
2023/07/31 05:56:00;;;;;;;3.23;2.33;;;18.60;99.90;;;;;;4960084;28;20517;-67
2023/07/31 05:58:28;;;;;;;4.90;2.50;;;18.70;99.90;;;;;;4970505;28;20453;-66
2023/07/31 06:00:55;;;;;;;5.97;3.23;;;18.70;99.90;;;;;;4970818;28;20468;-66
2023/07/31 06:03:22;;;;;;;3.10;2.30;;;18.80;99.90;;;;;;4970573;28;20589;-66
2023/07/31 06:05:49;;;;;;;2.87;2.63;;;18.80;99.90;;;;;;4970413;28;21195;-67
2023/07/31 06:08:16;;;;;;;3.90;3.37;;;18.90;99.90;;;;;;4970485;28;20450;-66
2023/07/31 06:10:42;;;;;;;2.40;2.20;;;19.00;99.90;;;;;;4970882;28;20471;-66
2023/07/31 06:13:09;;;;;;;4.20;2.97;;;19.10;99.90;;;;;;4970414;28;20487;-67
2023/07/31 06:15:37;;;;;;;2.53;2.33;;;19.20;99.90;;;;;;4970412;28;20461;-66
2023/07/31 06:18:07;;;;;;;5.23;2.63;;;19.20;99.90;;;;;;4969635;28;20836;-66
2023/07/31 06:20:34;;;;;;;3.53;2.70;;;19.20;99.90;;;;;;4970425;28;20508;-67
2023/07/31 06:23:01;;;;;;;3.50;3.10;;;19.20;99.90;;;;;;4970229;28;20474;-67
2023/07/31 06:25:28;;;;;;;4.03;2.60;;;19.20;99.90;;;;;;4970188;28;20492;-66
2023/07/31 06:27:55;;;;;;;5.43;2.80;;;19.30;99.60;;;;;;4969533;28;20459;-67
2023/07/31 06:30:21;;;;;;;2.70;2.50;;;19.20;99.70;;;;;;4970373;28;20457;-66
2023/07/31 06:32:50;;;;;;;6.73;2.73;;;19.20;99.90;;;;;;4969975;28;20470;-66
2023/07/31 06:35:16;;;;;;;5.73;3.37;;;19.10;99.90;;;;;;4970021;28;20450;-66
2023/07/31 06:37:44;;;;;;;3.60;3.00;;;19.20;99.90;;;;;;4969576;28;20513;-66
2023/07/31 06:40:11;;;;;;;2.10;2.00;;;19.10;99.90;;;;;;4971688;28;20973;-67
2023/07/31 06:42:38;;;;;;;3.33;2.13;;;19.10;99.90;;;;;;4988330;28;21026;-67
2023/07/31 06:45:06;;;;;;;3.00;2.70;;;19.10;99.90;;;;;;4989273;28;20489;-66
2023/07/31 06:47:33;;;;;;;3.03;2.63;;;19.20;99.90;;;;;;4988663;28;20540;-67
2023/07/31 06:50:01;;;;;;;3.47;2.73;;;19.30;99.90;;;;;;4989402;28;20803;-66
2023/07/31 06:52:28;;;;;;;4.10;2.97;;;19.30;99.90;;;;;;4989244;28;20976;-66
2023/07/31 06:55:04;;;;;;;3.70;2.83;;;19.30;99.90;;;;;;4989243;28;20839;-66
2023/07/31 06:57:31;;;;;;;5.33;2.80;;;19.40;99.90;;;;;;4988389;28;20446;-66
2023/07/31 06:59:58;;;;;;;4.87;2.87;;;19.40;99.90;;;;;;4989155;28;20472;-66
2023/07/31 07:02:25;;;;;;;6.60;2.80;;;19.50;99.90;;;;;;4989376;28;20457;-66
2023/07/31 07:04:52;;;;;;;3.33;2.80;;;19.50;99.90;;;;;;4989288;28;20491;-67
2023/07/31 07:07:20;;;;;;;4.80;2.77;;;19.50;99.60;;;;;;4988504;28;20455;-67
2023/07/31 07:09:47;;;;;;;4.77;2.83;;;19.50;99.80;;;;;;4989126;28;20461;-67
2023/07/31 07:12:14;;;;;;;3.97;2.87;;;19.50;99.90;;;;;;4989012;28;20458;-67
2023/07/31 07:14:41;;;;;;;3.00;2.70;;;19.60;99.70;;;;;;4966776;28;21040;-66
2023/07/31 07:17:07;;;;;;;4.43;2.70;;;19.60;99.70;;;;;;4968185;28;20545;-66
2023/07/31 07:19:34;;;;;;;3.60;2.67;;;19.70;99.20;;;;;;4968982;28;20474;-67
2023/07/31 07:22:01;;;;;;;2.97;2.67;;;19.60;99.30;;;;;;4969108;28;20456;-67
2023/07/31 07:24:30;;;;;;;3.43;2.73;;;19.70;99.90;;;;;;4968898;28;20475;-67
2023/07/31 07:26:57;;;;;;;4.60;2.73;;;19.80;99.70;;;;;;4973807;28;21170;-67
2023/07/31 07:29:24;;;;;;;5.10;2.40;;;19.90;99.60;;;;;;4975473;28;20688;-67
2023/07/31 07:31:50;;;;;;;4.77;3.07;;;20.00;99.90;;;;;;4976002;28;20479;-67
2023/07/31 07:34:17;;;;;;;2.83;2.00;;;20.00;99.70;;;;;;4975210;28;20479;-67
2023/07/31 07:36:44;;;;;;;3.70;2.70;;;20.10;99.00;;;;;;4975000;28;20812;-67
2023/07/31 07:39:12;;;;;;;3.13;2.70;;;20.10;99.30;;;;;;4975282;28;20944;-67
2023/07/31 07:41:40;;;;;;;3.07;2.87;;;20.10;99.50;;;;;;4975478;28;20944;-67
2023/07/31 07:44:07;;;;;;;3.23;2.93;;;20.10;98.60;;;;;;4975124;28;20467;-67
2023/07/31 07:46:33;;;;;;;3.50;2.70;;;20.20;98.90;;;;;;4974793;28;20492;-67
2023/07/31 07:49:00;;;;;;;4.00;2.53;;;20.20;99.60;;;;;;4975164;28;20458;-67
2023/07/31 07:51:29;;;;;;;7.40;2.77;;;20.40;99.20;;;;;;4975465;28;20470;-67
2023/07/31 07:53:56;;;;;;;3.40;2.53;;;20.60;99.90;;;;;;4976978;28;20488;-67
2023/07/31 07:56:24;;;;;;;2.30;2.10;;;20.70;98.50;;;;;;4978162;28;20462;-67
2023/07/31 07:58:52;;;;;;;4.57;4.27;;;20.90;98.20;;;;;;4979597;28;20452;-67
2023/07/31 08:01:19;;;;;;;3.47;2.80;;;21.10;99.90;;;;;;4979764;28;21079;-67
2023/07/31 08:03:48;;;;;;;3.33;3.03;;;21.10;97.80;;;;;;4979717;28;20500;-67
2023/07/31 08:06:15;;;;;;;4.20;3.10;;;21.10;98.40;;;;;;4984545;28;20610;-67
2023/07/31 08:08:42;;;;;;;3.20;2.90;;;21.20;98.40;;;;;;4979551;28;20453;-67
2023/07/31 08:11:09;;;;;;;5.57;3.40;;;21.20;97.80;;;;;;4980191;28;20470;-67
2023/07/31 08:13:36;;;;;;;3.10;2.90;;;21.00;97.60;;;;;;4975685;28;20491;-67
2023/07/31 08:16:05;;;;;;;4.30;3.00;;;20.90;98.00;;;;;;4980934;28;20456;-67
2023/07/31 08:18:32;;;;;;;4.57;2.77;;;20.90;97.80;;;;;;4976352;28;21032;-67
2023/07/31 08:20:59;;;;;;;3.57;2.40;;;20.80;98.30;;;;;;4983510;28;20462;-67
2023/07/31 08:23:26;;;;;;;3.73;2.53;;;20.80;98.30;;;;;;4985068;28;20476;-67
2023/07/31 08:25:53;;;;;;;3.70;2.70;;;20.70;98.90;;;;;;4983430;28;20496;-67
2023/07/31 08:28:21;;;;;;;3.23;2.60;;;20.70;99.90;;;;;;4973597;28;20461;-67
2023/07/31 08:30:48;;;;;;;4.83;3.30;;;20.80;98.80;;;;;;4981609;28;20464;-66
2023/07/31 08:33:16;;;;;;;4.20;2.80;;;20.70;98.50;;;;;;4982757;28;20568;-67
2023/07/31 08:35:43;;;;;;;4.50;3.17;;;20.70;98.60;;;;;;4984053;28;20963;-67
2023/07/31 08:38:10;;;;;;;3.73;2.80;;;20.70;98.60;;;;;;4975532;28;20466;-66
2023/07/31 08:40:38;;;;;;;3.47;2.47;;;20.70;98.60;;;;;;4979723;28;20893;-67
2023/07/31 08:43:05;;;;;;;4.90;3.43;;;20.80;98.30;;;;;;4973780;28;20487;-66
2023/07/31 08:45:33;;;;;;;3.17;2.87;;;20.90;99.20;;;;;;4979489;28;21023;-65
2023/07/31 08:48:00;;;;;;;6.50;3.67;;;21.00;98.80;;;;;;4976240;28;20459;-67
2023/07/31 08:50:28;;;;;;;6.37;3.30;;;21.10;98.30;;;;;;4974500;28;20884;-67
2023/07/31 08:52:55;;;;;;;4.93;3.10;;;21.10;98.40;;;;;;4977685;28;21044;-67
2023/07/31 08:55:23;;;;;;;3.80;2.67;;;21.20;98.30;;;;;;4978148;28;20476;-67
2023/07/31 08:57:52;;;;;;;5.83;2.60;;;21.30;98.20;;;;;;4974823;28;20438;-67
2023/07/31 09:00:21;;;;;;;2.67;2.47;;;21.30;98.00;;;;;;4975965;28;20462;-66
2023/07/31 09:02:57;;;;;;;3.93;2.23;;;21.50;98.20;;;;;;4975253;28;20472;-67
2023/07/31 09:05:24;;;;;;;5.93;3.10;;;21.60;98.80;;;;;;4975336;28;20472;-67
2023/07/31 09:07:53;;;;;;;3.93;2.67;;;21.70;98.50;;;;;;4971089;28;20771;-65
2023/07/31 09:10:20;;;;;;;3.10;2.80;;;21.90;98.70;;;;;;4976375;28;20468;-65
2023/07/31 09:12:47;;;;;;;5.57;2.80;;;21.90;98.60;;;;;;4983349;28;21009;-65
2023/07/31 09:15:14;;;;;;;4.13;2.80;;;22.00;98.90;;;;;;4976846;28;20972;-65
2023/07/31 09:17:41;;;;;;;4.83;3.00;;;22.00;97.80;;;;;;4984956;28;20549;-65
2023/07/31 09:20:16;;;;;;;3.00;2.70;;;22.10;97.30;;;;;;4981707;28;21169;-66
2023/07/31 09:22:43;;;;;;;3.73;2.60;;;22.00;97.20;;;;;;4990055;28;20543;-65
2023/07/31 09:25:19;;;;;;;2.73;2.33;;;21.90;97.20;;;;;;4959651;28;21397;-65
2023/07/31 09:27:52;;;;;;;4.13;3.03;;;21.90;98.60;;;;;;4977080;28;20450;-65
2023/07/31 09:30:19;;;;;;;5.30;2.90;;;21.80;97.80;;;;;;4985088;28;21210;-65
2023/07/31 09:32:47;;;;;;;4.20;2.80;;;21.70;97.90;;;;;;4989059;28;20461;-65
2023/07/31 09:35:28;;;;;;;4.63;3.47;;;21.70;98.20;;;;;;4969156;28;20561;-66
2023/07/31 09:37:58;;;;;;;4.50;2.53;;;21.70;97.50;;;;;;4969456;28;21164;-65
2023/07/31 09:40:30;;;;;;;3.90;2.77;;;21.70;98.00;;;;;;4969644;28;20547;-66
2023/07/31 09:43:35;;;;;;;3.10;2.53;;;21.80;97.30;;;;;;4970388;28;21195;-65
2023/07/31 09:46:02;;;;;;;5.63;3.00;;;22.00;96.90;;;;;;4974076;28;20495;-64
2023/07/31 09:48:30;;;;;;;5.57;3.70;;;22.00;96.80;;;;;;4977163;28;21344;-65
2023/07/31 09:50:57;;;;;;;4.87;3.00;;;22.10;97.10;;;;;;4950335;28;20470;-65
2023/07/31 09:53:30;;;;;;;4.33;2.30;;;22.20;96.20;;;;;;4950924;28;20567;-65
2023/07/31 09:56:00;;;;;;;3.00;2.80;;;22.20;96.90;;;;;;4969700;28;20663;-65
2023/07/31 09:58:29;;;;;;;3.20;2.50;;;22.20;96.50;;;;;;4969521;28;20454;-65
2023/07/31 10:00:58;;;;;;;4.00;2.80;;;22.20;96.90;;;;;;4969781;28;20544;-66
2023/07/31 10:03:27;;;;;;;3.20;2.77;;;22.20;95.70;;;;;;4968471;28;20485;-65
2023/07/31 10:05:56;;;;;;;4.03;2.50;;;22.20;95.90;;;;;;4970751;28;20486;-64
2023/07/31 10:08:29;;;;;;;4.17;3.13;;;22.20;96.00;;;;;;4980812;28;21189;-65
2023/07/31 10:11:02;;;;;;;4.40;3.37;;;22.30;97.40;;;;;;4950132;28;21337;-65
2023/07/31 10:13:31;;;;;;;4.70;2.90;;;22.30;97.60;;;;;;4957931;28;20482;-65
2023/07/31 10:16:00;;;;;;;4.67;3.00;;;22.40;97.00;;;;;;4964923;28;20456;-66
2023/07/31 10:18:28;;;;;;;3.00;2.70;;;22.50;96.20;;;;;;4989118;28;20456;-65
2023/07/31 10:20:56;;;;;;;2.87;2.57;;;22.50;95.80;;;;;;4950626;28;20551;-65
2023/07/31 10:23:24;;;;;;;7.50;2.97;;;22.50;95.30;;;;;;4950095;28;20476;-65
2023/07/31 10:25:52;;;;;;;3.53;2.80;;;22.40;95.60;;;;;;4949853;28;20453;-65
2023/07/31 10:28:21;;;;;;;3.17;2.87;;;22.30;95.70;;;;;;4973648;28;21190;-65
2023/07/31 10:30:48;;;;;;;6.30;3.00;;;22.30;95.90;;;;;;4987592;28;20447;-65
2023/07/31 10:33:16;;;;;;;5.33;3.60;;;22.20;96.70;;;;;;4988414;28;20481;-65
2023/07/31 10:35:43;;;;;;;3.90;3.07;;;22.20;96.00;;;;;;4988491;28;20457;-65
2023/07/31 10:38:12;;;;;;;3.97;2.90;;;22.20;97.10;;;;;;4987851;28;20969;-65
2023/07/31 10:40:39;;;;;;;3.13;2.70;;;22.10;96.00;;;;;;4988475;28;20444;-65
2023/07/31 10:43:08;;;;;;;8.13;4.77;;;22.00;96.50;;;;;;4988459;28;20464;-65
2023/07/31 10:45:38;;;;;;;4.10;2.73;;;22.00;96.70;;;;;;4988433;28;20539;-65
2023/07/31 10:48:06;;;;;;;3.50;3.07;;;21.90;95.90;;;;;;4988357;28;20452;-64
2023/07/31 10:50:37;;;;;;;3.20;2.90;;;21.90;97.20;;;;;;4988687;28;20885;-65
2023/07/31 10:53:04;;;;;;;3.20;2.77;;;21.90;97.70;;;;;;4988265;28;20571;-65
2023/07/31 10:55:33;;;;;;;4.17;3.30;;;22.00;98.10;;;;;;4987850;28;20455;-65
2023/07/31 10:58:10;;;;;;;5.07;3.23;;;22.00;97.10;;;;;;4978308;28;20481;-65
2023/07/31 11:00:40;;;;;;;4.27;3.20;;;22.00;96.50;;;;;;4974753;28;20500;-65
2023/07/31 11:03:08;;;;;;;10.23;4.00;;;22.00;96.00;;;;;;4976430;28;20861;-65
2023/07/31 11:06:02;;;;;;;3.90;2.80;;;22.00;96.50;;;;;;4978558;28;21032;-65
2023/07/31 11:08:30;;;;;;;4.23;3.83;;;22.10;96.80;;;;;;4968140;28;20898;-65
2023/07/31 11:11:08;;;;;;;3.33;3.13;;;22.10;96.90;;;;;;4977950;28;20449;-65
2023/07/31 11:13:42;;;;;;;3.77;3.10;;;22.20;95.50;;;;;;4971092;28;20579;-66
2023/07/31 11:16:10;;;;;;;4.00;3.23;;;22.30;96.00;;;;;;4981428;28;20535;-65
2023/07/31 11:18:39;;;;;;;4.83;3.23;;;22.20;96.20;;;;;;4971483;28;20453;-65
2023/07/31 11:21:06;;;;;;;2.57;2.37;;;22.30;95.10;;;;;;4980158;28;20560;-65
2023/07/31 11:23:33;;;;;;;3.03;2.73;;;22.30;93.80;;;;;;4978418;28;20851;-65
2023/07/31 11:26:01;;;;;;;3.17;2.83;;;22.30;93.90;;;;;;4972482;28;20819;-65
2023/07/31 11:28:32;;;;;;;3.67;2.60;;;22.30;94.00;;;;;;4977246;28;20550;-65
2023/07/31 11:30:59;;;;;;;4.90;3.20;;;22.20;94.40;;;;;;4971174;28;20456;-66
2023/07/31 11:33:28;;;;;;;3.63;2.50;;;22.30;94.10;;;;;;4971487;28;20495;-66
2023/07/31 11:35:54;;;;;;;5.63;3.60;;;22.40;94.10;;;;;;4975049;28;20456;-66
2023/07/31 11:38:25;;;;;;;6.20;2.97;;;22.40;94.10;;;;;;4975841;28;20462;-65
2023/07/31 11:40:52;;;;;;;3.13;2.80;;;22.40;94.20;;;;;;4978342;28;20529;-65
2023/07/31 11:43:20;;;;;;;4.70;3.20;;;22.50;95.30;;;;;;4978214;28;20485;-66
2023/07/31 11:45:49;;;;;;;4.30;3.10;;;22.60;94.80;;;;;;4975640;28;20491;-66
2023/07/31 11:48:23;;;;;;;4.60;2.67;;;22.50;94.30;;;;;;4982443;28;20497;-65
2023/07/31 11:50:53;;;;;;;3.50;2.70;;;22.60;94.20;;;;;;4977131;28;20458;-65
2023/07/31 11:53:26;;;;;;;3.73;2.90;;;22.70;94.20;;;;;;4965899;28;20482;-65
2023/07/31 11:55:53;;;;;;;3.17;2.83;;;22.70;93.90;;;;;;4976144;28;20452;-65
2023/07/31 11:58:21;;;;;;;5.83;3.90;;;22.80;94.30;;;;;;4975123;28;20455;-66
2023/07/31 12:00:49;;;;;;;3.90;3.57;;;22.90;93.30;;;;;;4977781;28;20450;-65
2023/07/31 12:03:16;;;;;;;3.70;3.30;;;23.00;94.90;;;;;;4977319;28;20855;-65
2023/07/31 12:05:43;;;;;;;5.70;2.77;;;23.10;93.90;;;;;;4977810;28;20451;-66
2023/07/31 12:08:12;;;;;;;3.17;2.93;;;23.20;93.40;;;;;;4970476;28;20487;-65
2023/07/31 12:10:40;;;;;;;3.40;2.97;;;23.20;94.20;;;;;;4978683;28;20460;-65
2023/07/31 12:13:13;;;;;;;4.30;3.20;;;23.30;93.40;;;;;;4981145;28;20483;-66
2023/07/31 12:15:41;;;;;;;4.43;3.50;;;23.40;93.50;;;;;;4980366;28;20480;-66
2023/07/31 12:18:10;;;;;;;4.03;3.00;;;23.40;92.70;;;;;;4971848;28;20532;-66
2023/07/31 12:20:41;;;;;;;4.37;3.30;;;23.50;93.10;;;;;;4978809;28;20555;-65
2023/07/31 12:23:13;;;;;;;4.77;3.50;;;23.50;93.60;;;;;;4988220;28;20924;-66
2023/07/31 12:25:42;;;;;;;4.70;3.00;;;23.40;92.10;;;;;;4980315;28;20459;-66
2023/07/31 12:28:11;;;;;;;4.23;2.87;;;23.40;93.00;;;;;;4966402;28;20580;-66
2023/07/31 12:30:39;;;;;;;8.00;3.40;;;23.50;92.80;;;;;;4965648;28;20547;-65
2023/07/31 12:33:06;;;;;;;4.23;3.83;;;23.60;93.40;;;;;;4952029;28;20780;-65
2023/07/31 12:35:38;;;;;;;3.80;3.50;;;23.60;94.40;;;;;;4962717;28;20462;-65
2023/07/31 12:38:05;;;;;;;4.03;3.73;;;23.60;93.40;;;;;;4955459;28;20464;-65
2023/07/31 12:40:32;;;;;;;4.53;3.87;;;23.70;93.40;;;;;;4976733;28;20451;-66
2023/07/31 12:43:03;;;;;;;4.43;3.33;;;23.80;92.90;;;;;;4980510;28;20488;-65
2023/07/31 12:45:30;;;;;;;3.93;3.33;;;23.90;93.30;;;;;;4958334;28;20547;-65
2023/07/31 12:47:57;;;;;;;4.83;4.00;;;23.90;93.70;;;;;;4955891;28;20495;-64
2023/07/31 12:50:25;;;;;;;5.20;3.50;;;24.10;93.60;;;;;;4960967;28;20449;-65
2023/07/31 12:52:52;;;;;;;4.40;3.50;;;24.00;92.40;;;;;;4964992;28;20476;-65